createdAt,value
2023-04-04T00:01:06.896Z,58.83
2023-04-04T00:03:39.912Z,58.61
2023-04-04T00:06:12.630Z,58.84
2023-04-04T00:08:46.623Z,59.14
2023-04-04T00:11:19.335Z,58.95
2023-04-04T00:13:52.046Z,58.95
2023-04-04T00:16:25.115Z,58.89
2023-04-04T00:18:57.915Z,58.88
2023-04-04T00:21:30.665Z,59.02
2023-04-04T00:24:04.866Z,58.47
2023-04-04T00:26:37.563Z,58.92
2023-04-04T00:29:10.258Z,59.17
2023-04-04T00:31:43.022Z,59.28
2023-04-04T00:34:15.760Z,59.09
2023-04-04T00:36:49.091Z,59.53
2023-04-04T00:39:23.620Z,59.74
2023-04-04T00:41:56.613Z,59.71
2023-04-04T00:44:30.577Z,60.31
2023-04-04T00:47:03.953Z,59.69
2023-04-04T00:49:37.758Z,59.74
2023-04-04T00:52:10.626Z,59.60
2023-04-04T00:54:44.740Z,59.88
2023-04-04T00:57:18.109Z,59.81
2023-04-04T00:59:51.740Z,59.75
2023-04-04T01:02:24.958Z,60.01
2023-04-04T01:04:57.722Z,60.32
2023-04-04T01:07:30.887Z,59.87
2023-04-04T01:10:06.999Z,59.90
2023-04-04T01:12:40.745Z,59.84
2023-04-04T01:15:13.522Z,59.52
2023-04-04T01:17:47.295Z,59.65
2023-04-04T01:20:26.322Z,59.93
2023-04-04T01:23:03.904Z,60.12
2023-04-04T01:25:38.279Z,59.85
2023-04-04T01:28:15.257Z,60.25
2023-04-04T01:30:48.553Z,60.15
2023-04-04T01:33:28.066Z,60.28
2023-04-04T01:36:06.755Z,60.10
2023-04-04T01:38:47.246Z,59.89
2023-04-04T01:41:22.543Z,60.25
2023-04-04T01:44:01.973Z,60.45
2023-04-04T01:46:36.968Z,60.35
2023-04-04T01:49:11.117Z,60.02
2023-04-04T01:51:46.481Z,60.38
2023-04-04T01:54:20.142Z,60.79
2023-04-04T01:56:54.626Z,60.27
2023-04-04T01:59:27.466Z,60.15
2023-04-04T02:02:00.286Z,60.93
2023-04-04T02:04:34.077Z,60.47
2023-04-04T02:07:08.240Z,60.33
2023-04-04T02:09:41.896Z,60.80
2023-04-04T02:12:16.331Z,60.51
2023-04-04T02:14:49.542Z,60.76
2023-04-04T02:17:22.341Z,60.42
2023-04-04T02:19:55.768Z,60.44
2023-04-04T02:22:28.555Z,60.42
2023-04-04T02:25:02.824Z,60.29
2023-04-04T02:27:37.278Z,60.21
2023-04-04T02:30:11.627Z,60.56
2023-04-04T02:32:44.567Z,60.28
2023-04-04T02:35:22.009Z,60.45
2023-04-04T02:37:56.378Z,60.48
2023-04-04T02:40:33.351Z,60.11
2023-04-04T02:43:07.480Z,60.29
2023-04-04T02:45:41.768Z,60.43
2023-04-04T02:48:27.405Z,60.82
2023-04-04T02:51:04.255Z,60.89
2023-04-04T02:53:38.554Z,60.76
2023-04-04T02:56:23.040Z,60.78
2023-04-04T02:58:57.528Z,60.97
2023-04-04T03:01:31.227Z,61.08
2023-04-04T03:04:07.502Z,60.48
2023-04-04T03:06:42.214Z,60.68
2023-04-04T03:09:16.162Z,60.44
2023-04-04T03:11:49.085Z,60.16
2023-04-04T03:14:23.045Z,60.44
2023-04-04T03:16:56.270Z,60.63
2023-04-04T03:19:30.200Z,60.34
2023-04-04T03:22:03.697Z,60.51
2023-04-04T03:24:39.203Z,60.83
2023-04-04T03:27:12.463Z,61.03
2023-04-04T03:29:47.002Z,60.78
2023-04-04T03:32:19.769Z,60.92
2023-04-04T03:34:53.095Z,60.99
2023-04-04T03:37:25.801Z,60.83
2023-04-04T03:39:58.572Z,60.66
2023-04-04T03:42:34.030Z,60.78
2023-04-04T03:45:10.885Z,60.73
2023-04-04T03:47:44.845Z,60.47
2023-04-04T03:50:17.725Z,60.44
2023-04-04T03:52:58.349Z,60.99
2023-04-04T03:55:31.358Z,60.55
2023-04-04T03:58:05.577Z,60.78
2023-04-04T04:00:40.664Z,60.87
2023-04-04T04:03:15.526Z,61.31
2023-04-04T04:05:49.615Z,60.89
2023-04-04T04:08:23.966Z,60.96
2023-04-04T04:10:57.946Z,60.65
2023-04-04T04:13:32.114Z,61.14
2023-04-04T04:16:07.126Z,60.66
2023-04-04T04:18:41.907Z,60.70
2023-04-04T04:21:19.102Z,60.76
2023-04-04T04:23:52.215Z,60.48
2023-04-04T04:26:25.059Z,60.76
2023-04-04T04:28:58.506Z,60.71
2023-04-04T04:31:39.009Z,61.01
2023-04-04T04:34:12.655Z,60.91
2023-04-04T04:36:48.265Z,60.66
2023-04-04T04:39:29.291Z,61.03
2023-04-04T04:42:29.366Z,61.25
2023-04-04T04:45:05.174Z,60.76
2023-04-04T04:47:43.882Z,61.02
2023-04-04T04:50:21.376Z,60.92
2023-04-04T04:52:56.322Z,60.76
2023-04-04T04:55:31.020Z,60.80
2023-04-04T04:58:14.356Z,60.79
2023-04-04T05:00:56.628Z,60.73
2023-04-04T05:03:31.992Z,60.72
2023-04-04T05:06:06.541Z,61.02
2023-04-04T05:08:40.545Z,60.45
2023-04-04T05:11:26.156Z,60.68
2023-04-04T05:13:59.935Z,60.58
2023-04-04T05:16:35.632Z,60.67
2023-04-04T05:19:10.585Z,61.03
2023-04-04T05:21:49.204Z,61.00
2023-04-04T05:24:33.514Z,60.51
2023-04-04T05:27:07.433Z,60.77
2023-04-04T05:29:47.515Z,60.92
2023-04-04T05:32:21.042Z,60.75
2023-04-04T05:35:03.476Z,60.27
2023-04-04T05:37:41.086Z,60.71
2023-04-04T05:40:17.367Z,60.88
2023-04-04T05:42:56.077Z,61.04
2023-04-04T05:45:31.374Z,60.99
2023-04-04T05:48:05.642Z,60.73
2023-04-04T05:50:47.352Z,60.81
2023-04-04T05:53:22.542Z,60.92
2023-04-04T05:55:58.877Z,60.87
2023-04-04T05:58:37.054Z,60.77
2023-04-04T06:01:10.676Z,60.70
2023-04-04T06:03:44.324Z,60.89
2023-04-04T06:06:22.555Z,61.25
2023-04-04T06:08:56.029Z,61.02
2023-04-04T06:11:29.022Z,60.72
2023-04-04T06:14:09.147Z,60.83
2023-04-04T06:16:42.461Z,60.87
2023-04-04T06:19:15.208Z,60.79
2023-04-04T06:21:49.231Z,61.16
2023-04-04T06:24:22.102Z,60.97
2023-04-04T06:26:54.857Z,61.02
2023-04-04T06:29:31.524Z,60.79
2023-04-04T06:32:06.690Z,61.06
2023-04-04T06:34:42.986Z,60.85
2023-04-04T06:37:18.653Z,60.97
2023-04-04T06:40:00.599Z,60.53
2023-04-04T06:42:34.479Z,60.96
2023-04-04T06:45:10.515Z,60.54
2023-04-04T06:47:43.425Z,60.46
2023-04-04T06:50:16.330Z,60.52
2023-04-04T06:52:52.634Z,60.52
2023-04-04T06:55:25.451Z,61.05
2023-04-04T06:57:58.304Z,61.10
2023-04-04T07:00:31.015Z,61.04
2023-04-04T07:03:03.902Z,61.08
2023-04-04T07:05:39.412Z,61.45
2023-04-04T07:08:13.592Z,61.31
2023-04-04T07:10:46.572Z,60.68
2023-04-04T07:13:19.631Z,61.42
2023-04-04T07:15:52.627Z,61.13
2023-04-04T07:18:26.175Z,61.39
2023-04-04T07:20:59.584Z,61.14
2023-04-04T07:23:33.951Z,61.00
2023-04-04T07:26:06.787Z,60.94
2023-04-04T07:28:40.059Z,60.75
2023-04-04T07:31:14.890Z,61.43
2023-04-04T07:33:47.764Z,61.51
2023-04-04T07:36:20.669Z,61.64
2023-04-04T07:38:55.159Z,61.64
2023-04-04T07:41:27.929Z,61.58
2023-04-04T07:44:00.547Z,61.05
2023-04-04T07:46:33.379Z,62.50
2023-04-04T07:49:06.061Z,61.36
2023-04-04T07:51:39.823Z,62.29
2023-04-04T07:54:13.851Z,60.68
2023-04-04T07:56:46.584Z,60.24
2023-04-04T07:59:19.828Z,60.43
2023-04-04T08:01:52.485Z,63.28
2023-04-04T08:04:25.543Z,60.50
2023-04-04T08:06:58.165Z,60.95
2023-04-04T08:09:34.455Z,59.17
2023-04-04T08:12:07.977Z,61.74
2023-04-04T08:14:40.825Z,60.93
2023-04-04T08:17:14.759Z,60.54
2023-04-04T08:19:47.435Z,59.91
2023-04-04T08:22:20.208Z,61.91
2023-04-04T08:24:54.718Z,62.54
2023-04-04T08:27:27.411Z,58.51
2023-04-04T08:30:00.534Z,63.85
2023-04-04T08:32:33.663Z,59.37
2023-04-04T08:35:06.840Z,61.97
2023-04-04T08:37:39.712Z,61.64
2023-04-04T08:40:14.257Z,60.16
2023-04-04T08:42:49.174Z,61.37
2023-04-04T08:45:23.601Z,61.10
2023-04-04T08:47:59.315Z,60.86
2023-04-04T08:50:33.628Z,61.48
2023-04-04T08:53:07.269Z,60.48
2023-04-04T08:55:41.573Z,60.75
2023-04-04T08:58:14.925Z,63.72
2023-04-04T09:00:47.736Z,60.64
2023-04-04T09:03:24.696Z,60.04
2023-04-04T09:05:58.645Z,61.21
2023-04-04T09:08:32.177Z,48.59
2023-04-04T09:11:07.615Z,54.13
2023-04-04T09:13:42.146Z,55.59
2023-04-04T09:16:15.564Z,45.07
2023-04-04T09:18:48.489Z,49.97
2023-04-04T09:21:21.480Z,49.83
2023-04-04T09:24:01.453Z,41.39
2023-04-04T09:26:49.671Z,44.42
2023-04-04T09:29:23.035Z,40.51
2023-04-04T09:31:56.599Z,48.08
2023-04-04T09:34:30.332Z,47.10
2023-04-04T09:37:04.808Z,47.45
2023-04-04T09:39:40.416Z,40.12
2023-04-04T09:42:16.754Z,44.38
2023-04-04T09:44:49.701Z,45.62
2023-04-04T09:47:31.455Z,39.62
2023-04-04T09:50:05.798Z,36.81
2023-04-04T09:52:40.258Z,44.68
2023-04-04T09:55:13.421Z,45.98
2023-04-04T09:57:48.842Z,38.23
2023-04-04T10:00:23.082Z,43.85
2023-04-04T10:02:58.339Z,39.56
2023-04-04T10:05:31.685Z,36.78
2023-04-04T10:08:15.716Z,37.87
2023-04-04T10:11:02.681Z,36.92
2023-04-04T10:13:46.735Z,42.96
2023-04-04T10:16:20.307Z,40.38
2023-04-04T10:18:55.843Z,41.47
2023-04-04T10:21:28.857Z,45.65
2023-04-04T10:24:08.957Z,42.70
2023-04-04T10:26:42.266Z,42.18
2023-04-04T10:29:17.296Z,45.02
2023-04-04T10:31:54.649Z,43.46
2023-04-04T10:34:33.984Z,38.27
2023-04-04T10:37:12.820Z,40.82
2023-04-04T10:39:51.257Z,38.73
2023-04-04T10:42:27.285Z,41.22
2023-04-04T10:45:16.935Z,40.14
2023-04-04T10:47:53.285Z,36.98
2023-04-04T10:50:28.108Z,39.20
2023-04-04T10:53:05.386Z,40.44
2023-04-04T10:55:40.633Z,40.01
2023-04-04T10:58:13.729Z,32.85
2023-04-04T11:00:55.369Z,38.76
2023-04-04T11:03:29.169Z,39.04
2023-04-04T11:06:07.220Z,31.80
2023-04-04T11:08:41.541Z,34.23
2023-04-04T11:11:22.526Z,33.71
2023-04-04T11:14:01.733Z,32.24
2023-04-04T11:16:48.539Z,35.86
2023-04-04T11:19:22.854Z,33.03
2023-04-04T11:21:58.880Z,32.88
2023-04-04T11:24:32.193Z,37.21
2023-04-04T11:27:07.948Z,38.71
2023-04-04T11:29:53.833Z,37.41
2023-04-04T11:32:52.957Z,34.27
2023-04-04T11:35:33.192Z,33.98
2023-04-04T11:38:14.634Z,32.10
2023-04-04T11:40:54.790Z,32.85
2023-04-04T11:43:28.674Z,43.55
2023-04-04T11:46:10.749Z,41.18
2023-04-04T11:48:45.361Z,44.05
2023-04-04T11:51:19.898Z,45.77
2023-04-04T11:53:53.728Z,45.88
2023-04-04T11:56:27.443Z,46.17
2023-04-04T11:59:10.621Z,46.87
2023-04-04T12:01:44.891Z,47.24
2023-04-04T12:04:22.953Z,46.03
2023-04-04T12:07:00.466Z,48.19
2023-04-04T12:09:35.043Z,51.21
2023-04-04T12:12:09.355Z,49.02
2023-04-04T12:14:42.613Z,49.19
2023-04-04T12:17:17.811Z,51.32
2023-04-04T12:19:52.340Z,49.07
2023-04-04T12:22:25.295Z,47.85
2023-04-04T12:25:00.052Z,47.71
2023-04-04T12:27:32.935Z,49.25
2023-04-04T12:30:11.071Z,53.35
2023-04-04T12:32:45.430Z,52.49
2023-04-04T12:35:20.166Z,51.83
2023-04-04T12:37:59.637Z,52.84
2023-04-04T12:40:38.174Z,55.59
2023-04-04T12:43:18.267Z,52.90
2023-04-04T12:45:52.796Z,53.98
2023-04-04T12:48:30.018Z,50.81
2023-04-04T12:51:06.173Z,55.11
2023-04-04T12:53:53.210Z,57.67
2023-04-04T12:56:27.877Z,55.40
2023-04-04T12:59:03.471Z,55.25
2023-04-04T13:01:39.132Z,54.69
2023-04-04T13:04:15.090Z,57.82
2023-04-04T13:07:02.043Z,58.77
2023-04-04T13:09:36.956Z,55.52
2023-04-04T13:12:12.295Z,57.54
2023-04-04T13:14:59.269Z,57.54
2023-04-04T13:17:46.033Z,60.12
2023-04-04T13:20:21.000Z,58.25
2023-04-04T13:22:59.579Z,59.45
2023-04-04T13:25:33.198Z,56.74
2023-04-04T13:28:06.386Z,60.94
2023-04-04T13:30:39.815Z,59.30
2023-04-04T13:33:13.014Z,58.33
2023-04-04T13:35:49.396Z,60.72
2023-04-04T13:38:25.897Z,57.54
2023-04-04T13:41:00.508Z,49.63
2023-04-04T13:43:33.444Z,60.66
2023-04-04T13:46:06.174Z,59.77
2023-04-04T13:48:39.055Z,60.44
2023-04-04T13:51:12.135Z,60.70
2023-04-04T13:53:46.347Z,58.09
2023-04-04T13:56:19.543Z,47.98
2023-04-04T13:58:54.241Z,45.45
2023-04-04T14:01:27.419Z,44.62
2023-04-04T14:04:07.409Z,51.20
2023-04-04T14:06:47.197Z,35.27
2023-04-04T14:09:21.320Z,29.45
2023-04-04T14:11:54.223Z,42.21
2023-04-04T14:14:26.803Z,37.83
2023-04-04T14:16:59.954Z,41.19
2023-04-04T14:19:33.855Z,36.60
2023-04-04T14:22:07.400Z,37.91
2023-04-04T14:24:41.513Z,48.73
2023-04-04T14:27:14.513Z,45.89
2023-04-04T14:29:47.367Z,44.44
2023-04-04T14:32:20.815Z,42.52
2023-04-04T14:34:53.700Z,43.25
2023-04-04T14:37:26.541Z,39.71
2023-04-04T14:40:03.756Z,31.35
2023-04-04T14:42:37.114Z,40.12
2023-04-04T14:45:12.282Z,41.24
2023-04-04T14:47:45.029Z,46.04
2023-04-04T14:50:17.765Z,48.41
2023-04-04T14:52:52.807Z,48.95
2023-04-04T14:55:27.118Z,48.35
2023-04-04T14:58:02.460Z,37.75
2023-04-04T15:00:36.688Z,43.72
2023-04-04T15:03:09.497Z,46.98
2023-04-04T15:05:43.078Z,40.23
2023-04-04T15:08:18.345Z,51.03
2023-04-04T15:10:52.713Z,38.04
2023-04-04T15:13:28.490Z,39.09
2023-04-04T15:16:01.633Z,40.52
2023-04-04T15:18:35.188Z,45.65
2023-04-04T15:21:08.348Z,42.03
2023-04-04T15:23:41.143Z,47.77
2023-04-04T15:26:15.776Z,40.70
2023-04-04T15:28:49.352Z,45.83
2023-04-04T15:31:22.135Z,45.18
2023-04-04T15:33:59.194Z,45.13
2023-04-04T15:36:34.082Z,40.28
2023-04-04T15:39:06.887Z,43.72
2023-04-04T15:41:41.951Z,40.20
2023-04-04T15:44:14.673Z,45.01
2023-04-04T15:46:47.500Z,44.02
2023-04-04T15:49:20.842Z,42.03
2023-04-04T15:51:54.065Z,40.36
2023-04-04T15:54:28.981Z,45.35
2023-04-04T15:57:03.484Z,40.74
2023-04-04T15:59:36.513Z,40.42
2023-04-04T16:02:09.363Z,44.04
2023-04-04T16:04:42.179Z,45.53
2023-04-04T16:07:15.230Z,43.04
2023-04-04T16:09:47.953Z,42.18
2023-04-04T16:12:22.298Z,45.96
2023-04-04T16:14:55.017Z,43.98
2023-04-04T16:17:29.431Z,44.33
2023-04-04T16:20:03.718Z,44.08
2023-04-04T16:22:36.556Z,45.10
2023-04-04T16:25:09.744Z,45.85
2023-04-04T16:27:43.812Z,44.89
2023-04-04T16:30:16.816Z,45.46
2023-04-04T16:32:49.622Z,45.67
2023-04-04T16:35:22.658Z,45.35
2023-04-04T16:37:55.613Z,45.42
2023-04-04T16:40:28.191Z,44.64
2023-04-04T16:43:02.797Z,45.22
2023-04-04T16:45:36.009Z,45.67
2023-04-04T16:48:09.403Z,45.41
2023-04-04T16:50:42.261Z,46.10
2023-04-04T16:53:15.149Z,45.75
2023-04-04T16:55:48.099Z,46.18
2023-04-04T16:58:22.623Z,46.51
2023-04-04T17:00:55.373Z,46.12
2023-04-04T17:03:28.269Z,45.98
2023-04-04T17:06:01.815Z,45.56
2023-04-04T17:08:34.605Z,46.29
2023-04-04T17:11:07.721Z,45.89
2023-04-04T17:13:42.204Z,46.19
2023-04-04T17:16:17.877Z,45.54
2023-04-04T17:18:51.188Z,45.77
2023-04-04T17:21:24.100Z,47.08
2023-04-04T17:23:56.717Z,47.00
2023-04-04T17:26:29.639Z,46.51
2023-04-04T17:29:03.579Z,46.60
2023-04-04T17:31:36.506Z,45.98
2023-04-04T17:34:13.012Z,46.14
2023-04-04T17:36:47.135Z,45.92
2023-04-04T17:39:20.613Z,45.96
2023-04-04T17:41:57.150Z,47.53
2023-04-04T17:44:31.678Z,46.55
2023-04-04T17:47:04.937Z,47.04
2023-04-04T17:49:38.427Z,46.76
2023-04-04T17:52:14.216Z,46.65
2023-04-04T17:54:47.909Z,47.41
2023-04-04T17:57:21.473Z,47.39
2023-04-04T17:59:55.529Z,47.45
2023-04-04T18:02:28.471Z,47.40
2023-04-04T18:05:01.453Z,48.06
2023-04-04T18:07:34.248Z,47.69
2023-04-04T18:10:08.203Z,48.62
2023-04-04T18:12:41.240Z,48.27
2023-04-04T18:15:16.353Z,48.06
2023-04-04T18:17:49.607Z,48.64
2023-04-04T18:20:34.089Z,49.12
2023-04-04T18:23:07.759Z,50.05
2023-04-04T18:25:40.887Z,49.67
2023-04-04T18:28:13.963Z,49.63
2023-04-04T18:30:48.167Z,49.24
2023-04-04T18:33:21.105Z,50.38
2023-04-04T18:35:54.262Z,51.77
2023-04-04T18:38:27.950Z,49.41
2023-04-04T18:41:01.112Z,49.93
2023-04-04T18:43:34.233Z,50.23
2023-04-04T18:46:08.586Z,49.58
2023-04-04T18:48:41.672Z,49.75
2023-04-04T18:51:15.707Z,50.41
2023-04-04T18:53:48.632Z,49.93
2023-04-04T18:56:22.314Z,51.24
2023-04-04T18:58:55.158Z,49.91
2023-04-04T19:01:31.191Z,50.47
2023-04-04T19:04:05.157Z,50.96
2023-04-04T19:06:41.086Z,50.38
2023-04-04T19:09:14.924Z,50.43
2023-04-04T19:11:48.078Z,50.62
2023-04-04T19:14:20.978Z,50.75
2023-04-04T19:16:55.563Z,51.45
2023-04-04T19:19:29.050Z,52.14
2023-04-04T19:22:02.101Z,51.42
2023-04-04T19:24:35.081Z,51.45
2023-04-04T19:27:08.528Z,53.00
2023-04-04T19:29:41.452Z,52.04
2023-04-04T19:32:19.609Z,51.86
2023-04-04T19:34:52.707Z,51.69
2023-04-04T19:37:26.666Z,52.66
2023-04-04T19:39:59.703Z,52.51
2023-04-04T19:42:33.044Z,53.21
2023-04-04T19:45:14.226Z,52.74
2023-04-04T19:47:48.921Z,53.59
2023-04-04T19:50:35.801Z,53.89
2023-04-04T19:53:09.036Z,52.98
2023-04-04T19:55:43.424Z,53.40
2023-04-04T19:58:21.187Z,53.35
2023-04-04T20:00:54.250Z,53.70
2023-04-04T20:03:30.565Z,53.80
2023-04-04T20:06:13.085Z,54.44
2023-04-04T20:08:49.018Z,53.22
2023-04-04T20:11:28.911Z,56.03
2023-04-04T20:14:03.588Z,54.14
2023-04-04T20:16:36.985Z,55.41
2023-04-04T20:19:12.903Z,55.32
2023-04-04T20:21:47.894Z,56.03
2023-04-04T20:24:22.441Z,54.25
2023-04-04T20:26:56.992Z,53.61
2023-04-04T20:29:31.087Z,54.89
2023-04-04T20:32:06.403Z,54.53
2023-04-04T20:34:42.822Z,55.39
2023-04-04T20:37:19.971Z,56.32
2023-04-04T20:39:55.309Z,54.27
2023-04-04T20:42:39.899Z,55.70
2023-04-04T20:45:46.531Z,54.53
2023-04-04T20:48:40.328Z,53.62
2023-04-04T20:51:24.498Z,54.16
2023-04-04T20:53:59.159Z,54.73
2023-04-04T20:56:47.467Z,54.29
2023-04-04T20:59:34.995Z,54.70
2023-04-04T21:02:10.608Z,54.45
2023-04-04T21:04:46.105Z,54.56
2023-04-04T21:07:42.408Z,55.07
2023-04-04T21:10:24.646Z,54.71
2023-04-04T21:12:59.462Z,55.21
2023-04-04T21:15:34.486Z,54.84
2023-04-04T21:18:09.492Z,54.58
2023-04-04T21:21:15.190Z,55.66
2023-04-04T21:24:01.237Z,55.52
2023-04-04T21:26:35.023Z,55.45
2023-04-04T21:29:11.456Z,55.49
2023-04-04T21:31:44.546Z,55.25
2023-04-04T21:34:19.787Z,55.35
2023-04-04T21:36:55.269Z,55.79
2023-04-04T21:39:30.738Z,55.32
2023-04-04T21:42:07.893Z,55.20
2023-04-04T21:44:42.029Z,55.44
2023-04-04T21:47:15.871Z,55.33
2023-04-04T21:49:48.625Z,55.44
2023-04-04T21:52:21.342Z,55.83
2023-04-04T21:54:55.424Z,56.13
2023-04-04T21:57:28.110Z,55.90
2023-04-04T22:00:00.854Z,55.71
2023-04-04T22:02:33.613Z,55.70
2023-04-04T22:05:07.950Z,55.77
2023-04-04T22:07:41.353Z,55.64
2023-04-04T22:10:18.805Z,55.74
2023-04-04T22:12:51.949Z,55.80
2023-04-04T22:15:29.308Z,56.28
2023-04-04T22:18:04.436Z,55.98
2023-04-04T22:20:37.062Z,56.17
2023-04-04T22:23:14.141Z,56.46
2023-04-04T22:25:48.149Z,56.20
2023-04-04T22:28:24.895Z,56.30
2023-04-04T22:30:57.811Z,56.37
2023-04-04T22:33:30.756Z,56.46
2023-04-04T22:36:05.294Z,56.36
2023-04-04T22:38:39.347Z,56.52
2023-04-04T22:41:13.659Z,56.57
2023-04-04T22:43:46.389Z,56.65
2023-04-04T22:46:19.272Z,56.91
2023-04-04T22:48:52.394Z,56.80
2023-04-04T22:51:25.173Z,57.43
2023-04-04T22:53:57.901Z,56.68
2023-04-04T22:56:32.476Z,56.86
2023-04-04T22:59:06.132Z,57.24
2023-04-04T23:01:39.025Z,57.14
2023-04-04T23:04:12.271Z,56.78
2023-04-04T23:06:46.364Z,56.66
2023-04-04T23:09:19.078Z,57.24
2023-04-04T23:11:53.138Z,57.19
2023-04-04T23:14:30.590Z,57.05
2023-04-04T23:17:03.285Z,57.21
2023-04-04T23:19:36.340Z,56.97
2023-04-04T23:22:09.234Z,57.27
2023-04-04T23:24:44.617Z,57.19
2023-04-04T23:27:20.636Z,57.33
2023-04-04T23:29:56.970Z,57.32
2023-04-04T23:32:29.722Z,57.36
2023-04-04T23:35:03.843Z,57.17
2023-04-04T23:37:36.575Z,57.52
2023-04-04T23:40:10.092Z,57.55
2023-04-04T23:42:44.637Z,57.38
2023-04-04T23:45:17.295Z,57.54
2023-04-04T23:47:50.169Z,57.71
2023-04-04T23:50:23.800Z,57.50
2023-04-04T23:52:56.631Z,57.57
2023-04-04T23:55:29.552Z,57.22
2023-04-04T23:58:03.685Z,57.39
